sensor_id;sensor_type;location;lat;lon;timestamp;temperature;humidity
45643;DHT22;31358;46.008;11.144;2024-02-16T00:00:18;7.00;99.90
45643;DHT22;31358;46.008;11.144;2024-02-16T00:02:44;6.90;99.90
45643;DHT22;31358;46.008;11.144;2024-02-16T00:05:12;7.00;99.90
45643;DHT22;31358;46.008;11.144;2024-02-16T00:07:40;6.90;99.90
45643;DHT22;31358;46.008;11.144;2024-02-16T00:10:07;6.90;99.90
45643;DHT22;31358;46.008;11.144;2024-02-16T00:12:33;7.00;99.90
45643;DHT22;31358;46.008;11.144;2024-02-16T00:15:00;6.90;99.90
45643;DHT22;31358;46.008;11.144;2024-02-16T00:17:26;6.90;99.90
45643;DHT22;31358;46.008;11.144;2024-02-16T00:19:57;6.80;99.90
45643;DHT22;31358;46.008;11.144;2024-02-16T00:22:23;6.80;99.90
45643;DHT22;31358;46.008;11.144;2024-02-16T00:24:49;6.80;99.90
45643;DHT22;31358;46.008;11.144;2024-02-16T00:27:15;6.90;99.90
45643;DHT22;31358;46.008;11.144;2024-02-16T00:29:41;7.00;99.90
45643;DHT22;31358;46.008;11.144;2024-02-16T00:32:07;7.10;99.90
45643;DHT22;31358;46.008;11.144;2024-02-16T00:34:34;7.00;99.90
45643;DHT22;31358;46.008;11.144;2024-02-16T00:37:00;7.00;99.90
45643;DHT22;31358;46.008;11.144;2024-02-16T00:39:26;7.10;99.90
45643;DHT22;31358;46.008;11.144;2024-02-16T00:41:52;7.10;99.90
45643;DHT22;31358;46.008;11.144;2024-02-16T00:44:18;7.10;99.90
45643;DHT22;31358;46.008;11.144;2024-02-16T00:46:44;7.10;99.90
45643;DHT22;31358;46.008;11.144;2024-02-16T00:49:10;7.00;99.90
45643;DHT22;31358;46.008;11.144;2024-02-16T00:51:40;7.10;99.90
45643;DHT22;31358;46.008;11.144;2024-02-16T00:54:05;7.20;99.90
45643;DHT22;31358;46.008;11.144;2024-02-16T00:56:32;7.30;99.90
45643;DHT22;31358;46.008;11.144;2024-02-16T00:58:58;7.50;99.90
45643;DHT22;31358;46.008;11.144;2024-02-16T01:01:24;7.60;99.90
45643;DHT22;31358;46.008;11.144;2024-02-16T01:03:52;7.60;99.90
45643;DHT22;31358;46.008;11.144;2024-02-16T01:06:18;7.50;99.90
45643;DHT22;31358;46.008;11.144;2024-02-16T01:08:43;7.40;99.90
45643;DHT22;31358;46.008;11.144;2024-02-16T01:11:09;7.40;99.90
45643;DHT22;31358;46.008;11.144;2024-02-16T01:13:35;7.50;99.90
45643;DHT22;31358;46.008;11.144;2024-02-16T01:16:02;7.30;99.90
45643;DHT22;31358;46.008;11.144;2024-02-16T01:18:28;7.30;99.90
45643;DHT22;31358;46.008;11.144;2024-02-16T01:20:54;7.20;99.90
45643;DHT22;31358;46.008;11.144;2024-02-16T01:23:20;7.20;99.90
45643;DHT22;31358;46.008;11.144;2024-02-16T01:25:46;7.30;99.90
45643;DHT22;31358;46.008;11.144;2024-02-16T01:28:12;7.20;99.90
45643;DHT22;31358;46.008;11.144;2024-02-16T01:30:39;7.20;99.90
45643;DHT22;31358;46.008;11.144;2024-02-16T01:33:05;7.10;99.90
45643;DHT22;31358;46.008;11.144;2024-02-16T01:35:32;7.10;99.90
45643;DHT22;31358;46.008;11.144;2024-02-16T01:37:58;7.10;99.90
45643;DHT22;31358;46.008;11.144;2024-02-16T01:40:23;7.00;99.90
45643;DHT22;31358;46.008;11.144;2024-02-16T01:42:51;7.10;99.90
45643;DHT22;31358;46.008;11.144;2024-02-16T01:45:18;7.10;99.90
45643;DHT22;31358;46.008;11.144;2024-02-16T01:47:44;7.10;99.90
45643;DHT22;31358;46.008;11.144;2024-02-16T01:50:13;7.10;99.90
45643;DHT22;31358;46.008;11.144;2024-02-16T01:52:39;7.00;99.90
45643;DHT22;31358;46.008;11.144;2024-02-16T01:55:05;7.00;99.90
45643;DHT22;31358;46.008;11.144;2024-02-16T01:57:45;6.90;99.90
45643;DHT22;31358;46.008;11.144;2024-02-16T02:00:11;6.80;99.90
45643;DHT22;31358;46.008;11.144;2024-02-16T02:02:40;6.60;99.90
45643;DHT22;31358;46.008;11.144;2024-02-16T02:05:06;6.50;99.90
45643;DHT22;31358;46.008;11.144;2024-02-16T02:07:32;6.50;99.90
45643;DHT22;31358;46.008;11.144;2024-02-16T02:09:58;6.50;99.90
45643;DHT22;31358;46.008;11.144;2024-02-16T02:12:24;6.50;99.90
45643;DHT22;31358;46.008;11.144;2024-02-16T02:14:50;6.40;99.90
45643;DHT22;31358;46.008;11.144;2024-02-16T02:17:17;6.40;99.90
45643;DHT22;31358;46.008;11.144;2024-02-16T02:19:42;6.40;99.90
45643;DHT22;31358;46.008;11.144;2024-02-16T02:22:26;6.50;99.90
45643;DHT22;31358;46.008;11.144;2024-02-16T02:24:53;6.50;99.90
45643;DHT22;31358;46.008;11.144;2024-02-16T02:27:21;6.40;99.90
45643;DHT22;31358;46.008;11.144;2024-02-16T02:29:47;6.30;99.90
45643;DHT22;31358;46.008;11.144;2024-02-16T02:32:13;6.30;99.90
45643;DHT22;31358;46.008;11.144;2024-02-16T02:34:39;6.30;99.90
45643;DHT22;31358;46.008;11.144;2024-02-16T02:37:05;6.20;99.90
45643;DHT22;31358;46.008;11.144;2024-02-16T02:39:31;6.20;99.90
45643;DHT22;31358;46.008;11.144;2024-02-16T02:41:57;6.30;99.90
45643;DHT22;31358;46.008;11.144;2024-02-16T02:44:24;6.20;99.90
45643;DHT22;31358;46.008;11.144;2024-02-16T02:46:50;6.20;99.90
45643;DHT22;31358;46.008;11.144;2024-02-16T02:49:16;6.20;99.90
45643;DHT22;31358;46.008;11.144;2024-02-16T02:51:41;6.20;99.90
45643;DHT22;31358;46.008;11.144;2024-02-16T02:54:07;6.30;99.90
45643;DHT22;31358;46.008;11.144;2024-02-16T02:56:33;6.50;99.90
45643;DHT22;31358;46.008;11.144;2024-02-16T02:58:58;6.40;99.90
45643;DHT22;31358;46.008;11.144;2024-02-16T03:01:24;6.50;99.90
45643;DHT22;31358;46.008;11.144;2024-02-16T03:03:50;6.40;99.90
45643;DHT22;31358;46.008;11.144;2024-02-16T03:06:19;6.40;99.90
45643;DHT22;31358;46.008;11.144;2024-02-16T03:08:45;6.40;99.90
45643;DHT22;31358;46.008;11.144;2024-02-16T03:11:11;6.20;99.90
45643;DHT22;31358;46.008;11.144;2024-02-16T03:13:37;6.00;99.90
45643;DHT22;31358;46.008;11.144;2024-02-16T03:16:03;5.90;99.90
45643;DHT22;31358;46.008;11.144;2024-02-16T03:18:30;5.90;99.90
45643;DHT22;31358;46.008;11.144;2024-02-16T03:20:56;5.90;99.90
45643;DHT22;31358;46.008;11.144;2024-02-16T03:23:23;6.00;99.90
45643;DHT22;31358;46.008;11.144;2024-02-16T03:25:48;6.00;99.90
45643;DHT22;31358;46.008;11.144;2024-02-16T03:28:14;6.20;99.90
45643;DHT22;31358;46.008;11.144;2024-02-16T03:30:42;6.10;99.90
45643;DHT22;31358;46.008;11.144;2024-02-16T03:33:08;6.10;99.90
45643;DHT22;31358;46.008;11.144;2024-02-16T03:35:34;6.40;99.90
45643;DHT22;31358;46.008;11.144;2024-02-16T03:38:00;6.50;99.90
45643;DHT22;31358;46.008;11.144;2024-02-16T03:40:26;6.60;99.90
45643;DHT22;31358;46.008;11.144;2024-02-16T03:42:52;6.50;99.90
45643;DHT22;31358;46.008;11.144;2024-02-16T03:45:17;6.40;99.90
45643;DHT22;31358;46.008;11.144;2024-02-16T03:47:43;6.40;99.90
45643;DHT22;31358;46.008;11.144;2024-02-16T03:50:10;6.30;99.90
45643;DHT22;31358;46.008;11.144;2024-02-16T03:52:36;6.20;99.90
45643;DHT22;31358;46.008;11.144;2024-02-16T03:55:02;6.20;99.90
45643;DHT22;31358;46.008;11.144;2024-02-16T03:57:29;6.20;99.90
45643;DHT22;31358;46.008;11.144;2024-02-16T03:59:55;6.10;99.90
45643;DHT22;31358;46.008;11.144;2024-02-16T04:02:21;6.10;99.90
45643;DHT22;31358;46.008;11.144;2024-02-16T04:04:46;6.00;99.90
45643;DHT22;31358;46.008;11.144;2024-02-16T04:07:12;5.90;99.90
45643;DHT22;31358;46.008;11.144;2024-02-16T04:09:37;6.00;99.90
45643;DHT22;31358;46.008;11.144;2024-02-16T04:12:03;6.00;99.90
45643;DHT22;31358;46.008;11.144;2024-02-16T04:14:30;6.10;99.90
45643;DHT22;31358;46.008;11.144;2024-02-16T04:16:56;6.20;99.90
45643;DHT22;31358;46.008;11.144;2024-02-16T04:19:28;6.10;99.90
45643;DHT22;31358;46.008;11.144;2024-02-16T04:21:54;6.10;99.90
45643;DHT22;31358;46.008;11.144;2024-02-16T04:24:20;6.00;99.90
45643;DHT22;31358;46.008;11.144;2024-02-16T04:26:46;6.00;99.90
45643;DHT22;31358;46.008;11.144;2024-02-16T04:29:12;6.10;99.90
45643;DHT22;31358;46.008;11.144;2024-02-16T04:31:41;6.00;99.90
45643;DHT22;31358;46.008;11.144;2024-02-16T04:34:08;6.00;99.90
45643;DHT22;31358;46.008;11.144;2024-02-16T04:36:34;5.70;99.90
45643;DHT22;31358;46.008;11.144;2024-02-16T04:39:00;5.60;99.90
45643;DHT22;31358;46.008;11.144;2024-02-16T04:41:26;5.60;99.90
45643;DHT22;31358;46.008;11.144;2024-02-16T04:43:51;5.60;99.90
45643;DHT22;31358;46.008;11.144;2024-02-16T04:46:18;5.70;99.90
45643;DHT22;31358;46.008;11.144;2024-02-16T04:48:44;5.90;99.90
45643;DHT22;31358;46.008;11.144;2024-02-16T04:51:13;5.90;99.90
45643;DHT22;31358;46.008;11.144;2024-02-16T04:53:39;5.90;99.90
45643;DHT22;31358;46.008;11.144;2024-02-16T04:56:05;5.80;99.90
45643;DHT22;31358;46.008;11.144;2024-02-16T04:58:34;5.80;99.90
45643;DHT22;31358;46.008;11.144;2024-02-16T05:00:59;5.80;99.90
45643;DHT22;31358;46.008;11.144;2024-02-16T05:03:25;5.80;99.90
45643;DHT22;31358;46.008;11.144;2024-02-16T05:05:51;5.90;99.90
45643;DHT22;31358;46.008;11.144;2024-02-16T05:08:22;5.90;99.90
45643;DHT22;31358;46.008;11.144;2024-02-16T05:10:48;6.00;99.90
45643;DHT22;31358;46.008;11.144;2024-02-16T05:13:13;6.20;99.90
45643;DHT22;31358;46.008;11.144;2024-02-16T05:15:40;6.10;99.90
45643;DHT22;31358;46.008;11.144;2024-02-16T05:18:05;5.90;99.90
45643;DHT22;31358;46.008;11.144;2024-02-16T05:20:32;5.80;99.90
45643;DHT22;31358;46.008;11.144;2024-02-16T05:22:58;5.80;99.90
45643;DHT22;31358;46.008;11.144;2024-02-16T05:25:23;5.80;99.90
45643;DHT22;31358;46.008;11.144;2024-02-16T05:27:49;5.80;99.90
45643;DHT22;31358;46.008;11.144;2024-02-16T05:30:15;5.60;99.90
45643;DHT22;31358;46.008;11.144;2024-02-16T05:32:41;5.60;99.90
45643;DHT22;31358;46.008;11.144;2024-02-16T05:35:08;5.60;99.90
45643;DHT22;31358;46.008;11.144;2024-02-16T05:37:42;5.60;99.90
45643;DHT22;31358;46.008;11.144;2024-02-16T05:40:10;5.50;99.90
45643;DHT22;31358;46.008;11.144;2024-02-16T05:42:54;5.50;99.90
45643;DHT22;31358;46.008;11.144;2024-02-16T05:45:23;5.70;99.90
45643;DHT22;31358;46.008;11.144;2024-02-16T05:47:50;5.80;99.90
45643;DHT22;31358;46.008;11.144;2024-02-16T05:50:16;5.80;99.90
45643;DHT22;31358;46.008;11.144;2024-02-16T05:52:43;5.80;99.90
45643;DHT22;31358;46.008;11.144;2024-02-16T05:55:10;5.70;99.90
45643;DHT22;31358;46.008;11.144;2024-02-16T05:57:37;5.70;99.90
45643;DHT22;31358;46.008;11.144;2024-02-16T06:00:07;5.70;99.90
45643;DHT22;31358;46.008;11.144;2024-02-16T06:02:34;5.70;99.90
45643;DHT22;31358;46.008;11.144;2024-02-16T06:05:03;5.70;99.90
45643;DHT22;31358;46.008;11.144;2024-02-16T06:07:29;5.70;99.90
45643;DHT22;31358;46.008;11.144;2024-02-16T06:09:56;5.60;99.90
45643;DHT22;31358;46.008;11.144;2024-02-16T06:12:22;5.60;99.90
45643;DHT22;31358;46.008;11.144;2024-02-16T06:14:48;5.50;99.90
45643;DHT22;31358;46.008;11.144;2024-02-16T06:17:14;5.60;99.90
45643;DHT22;31358;46.008;11.144;2024-02-16T06:19:41;5.50;99.90
45643;DHT22;31358;46.008;11.144;2024-02-16T06:22:07;5.50;99.90
45643;DHT22;31358;46.008;11.144;2024-02-16T06:24:34;5.40;99.90
45643;DHT22;31358;46.008;11.144;2024-02-16T06:26:59;5.50;99.90
45643;DHT22;31358;46.008;11.144;2024-02-16T06:29:25;5.60;99.90
45643;DHT22;31358;46.008;11.144;2024-02-16T06:31:51;5.50;99.90
45643;DHT22;31358;46.008;11.144;2024-02-16T06:34:18;5.60;99.90
45643;DHT22;31358;46.008;11.144;2024-02-16T06:36:43;5.50;99.90
45643;DHT22;31358;46.008;11.144;2024-02-16T06:39:10;5.40;99.90
45643;DHT22;31358;46.008;11.144;2024-02-16T06:41:36;5.50;99.90
45643;DHT22;31358;46.008;11.144;2024-02-16T06:44:03;5.70;99.90
45643;DHT22;31358;46.008;11.144;2024-02-16T06:46:29;5.60;99.90
45643;DHT22;31358;46.008;11.144;2024-02-16T06:48:55;5.50;99.90
45643;DHT22;31358;46.008;11.144;2024-02-16T06:51:24;5.10;99.90
45643;DHT22;31358;46.008;11.144;2024-02-16T06:53:50;5.10;99.90
45643;DHT22;31358;46.008;11.144;2024-02-16T06:56:17;5.10;99.90
45643;DHT22;31358;46.008;11.144;2024-02-16T06:58:44;5.10;99.90
45643;DHT22;31358;46.008;11.144;2024-02-16T07:01:10;5.40;99.90
45643;DHT22;31358;46.008;11.144;2024-02-16T07:03:35;5.50;99.90
45643;DHT22;31358;46.008;11.144;2024-02-16T07:06:04;5.40;99.90
45643;DHT22;31358;46.008;11.144;2024-02-16T07:08:33;5.50;99.90
45643;DHT22;31358;46.008;11.144;2024-02-16T07:10:58;5.50;99.90
45643;DHT22;31358;46.008;11.144;2024-02-16T07:13:24;5.50;99.90
45643;DHT22;31358;46.008;11.144;2024-02-16T07:15:50;5.50;99.90
45643;DHT22;31358;46.008;11.144;2024-02-16T07:18:16;5.50;99.90
45643;DHT22;31358;46.008;11.144;2024-02-16T07:20:41;5.60;99.90
45643;DHT22;31358;46.008;11.144;2024-02-16T07:23:07;5.70;99.90
45643;DHT22;31358;46.008;11.144;2024-02-16T07:25:35;5.80;99.90
45643;DHT22;31358;46.008;11.144;2024-02-16T07:28:01;5.80;99.90
45643;DHT22;31358;46.008;11.144;2024-02-16T07:30:26;5.90;99.90
45643;DHT22;31358;46.008;11.144;2024-02-16T07:32:53;5.90;99.90
45643;DHT22;31358;46.008;11.144;2024-02-16T07:35:19;5.60;99.90
45643;DHT22;31358;46.008;11.144;2024-02-16T07:37:44;5.70;99.90
45643;DHT22;31358;46.008;11.144;2024-02-16T07:40:10;5.70;99.90
45643;DHT22;31358;46.008;11.144;2024-02-16T07:42:39;5.90;99.90
45643;DHT22;31358;46.008;11.144;2024-02-16T07:45:08;6.00;99.90
45643;DHT22;31358;46.008;11.144;2024-02-16T07:47:35;6.00;99.90
45643;DHT22;31358;46.008;11.144;2024-02-16T07:50:00;6.10;99.90
45643;DHT22;31358;46.008;11.144;2024-02-16T07:52:26;6.00;99.90
45643;DHT22;31358;46.008;11.144;2024-02-16T07:54:52;6.00;99.90
45643;DHT22;31358;46.008;11.144;2024-02-16T07:57:18;6.10;99.90
45643;DHT22;31358;46.008;11.144;2024-02-16T07:59:43;6.10;99.90
45643;DHT22;31358;46.008;11.144;2024-02-16T08:02:09;6.10;99.90
45643;DHT22;31358;46.008;11.144;2024-02-16T08:04:35;6.20;99.90
45643;DHT22;31358;46.008;11.144;2024-02-16T08:07:01;6.20;99.90
45643;DHT22;31358;46.008;11.144;2024-02-16T08:09:27;6.30;99.90
45643;DHT22;31358;46.008;11.144;2024-02-16T08:11:53;6.30;99.90
45643;DHT22;31358;46.008;11.144;2024-02-16T08:14:18;6.40;99.90
45643;DHT22;31358;46.008;11.144;2024-02-16T08:16:44;6.40;99.90
45643;DHT22;31358;46.008;11.144;2024-02-16T08:19:11;6.30;99.90
45643;DHT22;31358;46.008;11.144;2024-02-16T08:21:39;6.30;99.90
45643;DHT22;31358;46.008;11.144;2024-02-16T08:24:05;6.30;99.90
45643;DHT22;31358;46.008;11.144;2024-02-16T08:26:31;6.30;99.90
45643;DHT22;31358;46.008;11.144;2024-02-16T08:28:57;6.40;99.90
45643;DHT22;31358;46.008;11.144;2024-02-16T08:31:22;6.40;99.90
45643;DHT22;31358;46.008;11.144;2024-02-16T08:33:48;6.60;99.90
45643;DHT22;31358;46.008;11.144;2024-02-16T08:36:14;6.70;99.90
45643;DHT22;31358;46.008;11.144;2024-02-16T08:38:40;6.70;99.90
45643;DHT22;31358;46.008;11.144;2024-02-16T08:41:06;6.70;99.90
45643;DHT22;31358;46.008;11.144;2024-02-16T08:43:32;6.80;99.90
45643;DHT22;31358;46.008;11.144;2024-02-16T08:45:58;6.80;99.90
45643;DHT22;31358;46.008;11.144;2024-02-16T08:48:24;6.90;99.90
45643;DHT22;31358;46.008;11.144;2024-02-16T08:50:50;7.00;99.90
45643;DHT22;31358;46.008;11.144;2024-02-16T08:53:16;7.00;99.90
45643;DHT22;31358;46.008;11.144;2024-02-16T08:55:42;7.00;99.90
45643;DHT22;31358;46.008;11.144;2024-02-16T08:58:08;7.00;99.90
45643;DHT22;31358;46.008;11.144;2024-02-16T09:00:34;6.90;99.90
45643;DHT22;31358;46.008;11.144;2024-02-16T09:03:00;7.10;99.90
45643;DHT22;31358;46.008;11.144;2024-02-16T09:05:28;7.20;99.90
45643;DHT22;31358;46.008;11.144;2024-02-16T09:07:54;7.30;99.90
45643;DHT22;31358;46.008;11.144;2024-02-16T09:10:19;7.30;99.90
45643;DHT22;31358;46.008;11.144;2024-02-16T09:12:45;7.30;99.90
45643;DHT22;31358;46.008;11.144;2024-02-16T09:15:11;7.30;99.90
45643;DHT22;31358;46.008;11.144;2024-02-16T09:17:37;7.40;99.90
45643;DHT22;31358;46.008;11.144;2024-02-16T09:20:04;7.40;99.90
45643;DHT22;31358;46.008;11.144;2024-02-16T09:22:30;7.50;99.90
45643;DHT22;31358;46.008;11.144;2024-02-16T09:24:55;7.60;99.90
45643;DHT22;31358;46.008;11.144;2024-02-16T09:27:25;7.70;99.90
45643;DHT22;31358;46.008;11.144;2024-02-16T09:29:51;7.90;99.90
45643;DHT22;31358;46.008;11.144;2024-02-16T09:32:17;7.90;99.90
45643;DHT22;31358;46.008;11.144;2024-02-16T09:34:43;7.90;99.90
45643;DHT22;31358;46.008;11.144;2024-02-16T09:37:08;7.80;99.90
45643;DHT22;31358;46.008;11.144;2024-02-16T09:39:34;7.90;99.90
45643;DHT22;31358;46.008;11.144;2024-02-16T09:42:00;7.90;99.90
45643;DHT22;31358;46.008;11.144;2024-02-16T09:44:26;8.30;99.90
45643;DHT22;31358;46.008;11.144;2024-02-16T09:46:54;8.30;99.90
45643;DHT22;31358;46.008;11.144;2024-02-16T09:49:20;8.40;99.90
45643;DHT22;31358;46.008;11.144;2024-02-16T09:51:46;8.40;99.90
45643;DHT22;31358;46.008;11.144;2024-02-16T09:54:11;8.40;99.90
45643;DHT22;31358;46.008;11.144;2024-02-16T09:56:37;8.50;99.90
45643;DHT22;31358;46.008;11.144;2024-02-16T09:59:03;8.50;99.90
45643;DHT22;31358;46.008;11.144;2024-02-16T10:01:29;8.50;99.90
45643;DHT22;31358;46.008;11.144;2024-02-16T10:04:06;8.50;99.90
45643;DHT22;31358;46.008;11.144;2024-02-16T10:06:46;8.60;99.90
45643;DHT22;31358;46.008;11.144;2024-02-16T10:09:25;8.50;99.90
45643;DHT22;31358;46.008;11.144;2024-02-16T10:11:51;8.30;99.90
45643;DHT22;31358;46.008;11.144;2024-02-16T10:14:17;8.30;99.90
45643;DHT22;31358;46.008;11.144;2024-02-16T10:16:45;8.30;99.90
45643;DHT22;31358;46.008;11.144;2024-02-16T10:19:12;8.30;99.90
45643;DHT22;31358;46.008;11.144;2024-02-16T10:21:38;8.40;99.90
45643;DHT22;31358;46.008;11.144;2024-02-16T10:24:09;8.50;99.90
45643;DHT22;31358;46.008;11.144;2024-02-16T10:26:35;8.50;99.90
45643;DHT22;31358;46.008;11.144;2024-02-16T10:29:10;8.50;99.90
45643;DHT22;31358;46.008;11.144;2024-02-16T10:31:37;8.50;99.90
45643;DHT22;31358;46.008;11.144;2024-02-16T10:34:04;8.50;99.90
45643;DHT22;31358;46.008;11.144;2024-02-16T10:36:32;8.50;99.90
45643;DHT22;31358;46.008;11.144;2024-02-16T10:38:58;8.50;99.90
45643;DHT22;31358;46.008;11.144;2024-02-16T10:41:27;8.50;99.90
45643;DHT22;31358;46.008;11.144;2024-02-16T10:43:54;8.40;99.90
45643;DHT22;31358;46.008;11.144;2024-02-16T10:46:20;8.40;99.90
45643;DHT22;31358;46.008;11.144;2024-02-16T10:48:47;8.50;99.90
45643;DHT22;31358;46.008;11.144;2024-02-16T10:51:15;8.60;99.90
45643;DHT22;31358;46.008;11.144;2024-02-16T10:53:43;8.60;99.90
45643;DHT22;31358;46.008;11.144;2024-02-16T10:56:09;8.70;99.90
45643;DHT22;31358;46.008;11.144;2024-02-16T10:58:37;8.70;99.90
45643;DHT22;31358;46.008;11.144;2024-02-16T11:01:09;8.90;99.90
45643;DHT22;31358;46.008;11.144;2024-02-16T11:03:39;9.00;99.90
45643;DHT22;31358;46.008;11.144;2024-02-16T11:06:15;9.00;99.90
45643;DHT22;31358;46.008;11.144;2024-02-16T11:08:43;9.10;99.90
45643;DHT22;31358;46.008;11.144;2024-02-16T11:11:09;9.20;99.90
45643;DHT22;31358;46.008;11.144;2024-02-16T11:13:37;9.30;99.90
45643;DHT22;31358;46.008;11.144;2024-02-16T11:16:09;9.40;99.90
45643;DHT22;31358;46.008;11.144;2024-02-16T11:18:39;9.50;99.90
45643;DHT22;31358;46.008;11.144;2024-02-16T11:21:06;9.60;99.90
45643;DHT22;31358;46.008;11.144;2024-02-16T11:23:35;9.80;99.90
45643;DHT22;31358;46.008;11.144;2024-02-16T11:26:03;10.00;99.90
45643;DHT22;31358;46.008;11.144;2024-02-16T11:28:34;10.00;99.90
45643;DHT22;31358;46.008;11.144;2024-02-16T11:31:01;10.20;99.90
45643;DHT22;31358;46.008;11.144;2024-02-16T11:33:27;10.20;99.90
45643;DHT22;31358;46.008;11.144;2024-02-16T11:35:57;10.40;99.90
45643;DHT22;31358;46.008;11.144;2024-02-16T11:38:24;10.40;99.80
45643;DHT22;31358;46.008;11.144;2024-02-16T11:41:06;10.50;99.90
45643;DHT22;31358;46.008;11.144;2024-02-16T11:43:33;10.80;99.90
45643;DHT22;31358;46.008;11.144;2024-02-16T11:46:10;11.00;99.60
45643;DHT22;31358;46.008;11.144;2024-02-16T11:48:35;11.30;99.50
45643;DHT22;31358;46.008;11.144;2024-02-16T11:51:03;11.50;99.30
45643;DHT22;31358;46.008;11.144;2024-02-16T11:53:32;11.60;99.40
45643;DHT22;31358;46.008;11.144;2024-02-16T11:55:59;11.70;99.30
45643;DHT22;31358;46.008;11.144;2024-02-16T11:58:26;11.60;98.60
45643;DHT22;31358;46.008;11.144;2024-02-16T12:00:52;11.60;98.90
45643;DHT22;31358;46.008;11.144;2024-02-16T12:03:25;11.60;98.80
45643;DHT22;31358;46.008;11.144;2024-02-16T12:05:55;11.60;98.90
45643;DHT22;31358;46.008;11.144;2024-02-16T12:08:22;11.80;98.70
45643;DHT22;31358;46.008;11.144;2024-02-16T12:10:48;11.50;98.10
45643;DHT22;31358;46.008;11.144;2024-02-16T12:13:16;11.50;98.00
45643;DHT22;31358;46.008;11.144;2024-02-16T12:15:47;11.80;97.70
45643;DHT22;31358;46.008;11.144;2024-02-16T12:18:23;11.90;97.40
45643;DHT22;31358;46.008;11.144;2024-02-16T12:23:27;12.10;97.90
45643;DHT22;31358;46.008;11.144;2024-02-16T12:25:53;12.10;97.80
45643;DHT22;31358;46.008;11.144;2024-02-16T12:28:23;12.20;97.40
45643;DHT22;31358;46.008;11.144;2024-02-16T12:30:49;12.30;97.30
45643;DHT22;31358;46.008;11.144;2024-02-16T12:33:15;12.40;97.30
45643;DHT22;31358;46.008;11.144;2024-02-16T12:35:42;12.40;96.80
45643;DHT22;31358;46.008;11.144;2024-02-16T12:38:07;12.40;96.60
45643;DHT22;31358;46.008;11.144;2024-02-16T12:40:33;12.40;96.20
45643;DHT22;31358;46.008;11.144;2024-02-16T12:42:59;12.40;96.20
45643;DHT22;31358;46.008;11.144;2024-02-16T12:45:25;12.30;96.30
45643;DHT22;31358;46.008;11.144;2024-02-16T12:47:50;12.50;96.20
45643;DHT22;31358;46.008;11.144;2024-02-16T12:50:16;12.80;96.10
45643;DHT22;31358;46.008;11.144;2024-02-16T12:52:43;12.80;95.50
45643;DHT22;31358;46.008;11.144;2024-02-16T12:55:09;13.00;95.10
45643;DHT22;31358;46.008;11.144;2024-02-16T12:57:37;13.00;95.00
45643;DHT22;31358;46.008;11.144;2024-02-16T13:00:04;12.80;95.00
45643;DHT22;31358;46.008;11.144;2024-02-16T13:02:30;12.80;95.00
45643;DHT22;31358;46.008;11.144;2024-02-16T13:04:56;12.80;95.00
45643;DHT22;31358;46.008;11.144;2024-02-16T13:07:23;12.90;95.00
45643;DHT22;31358;46.008;11.144;2024-02-16T13:09:49;12.90;94.60
45643;DHT22;31358;46.008;11.144;2024-02-16T13:12:16;12.90;94.60
45643;DHT22;31358;46.008;11.144;2024-02-16T13:14:42;12.70;94.80
45643;DHT22;31358;46.008;11.144;2024-02-16T13:17:08;12.70;95.20
45643;DHT22;31358;46.008;11.144;2024-02-16T13:19:34;12.70;94.90
45643;DHT22;31358;46.008;11.144;2024-02-16T13:21:59;12.60;95.10
45643;DHT22;31358;46.008;11.144;2024-02-16T13:24:25;12.60;94.70
45643;DHT22;31358;46.008;11.144;2024-02-16T13:26:51;12.50;94.60
45643;DHT22;31358;46.008;11.144;2024-02-16T13:29:16;12.60;94.70
45643;DHT22;31358;46.008;11.144;2024-02-16T13:31:42;12.60;94.70
45643;DHT22;31358;46.008;11.144;2024-02-16T13:34:08;12.70;95.40
45643;DHT22;31358;46.008;11.144;2024-02-16T13:36:34;12.70;95.40
45643;DHT22;31358;46.008;11.144;2024-02-16T13:38:59;12.80;95.30
45643;DHT22;31358;46.008;11.144;2024-02-16T13:41:25;12.70;95.10
45643;DHT22;31358;46.008;11.144;2024-02-16T13:43:51;12.70;94.80
45643;DHT22;31358;46.008;11.144;2024-02-16T13:46:17;12.70;94.80
45643;DHT22;31358;46.008;11.144;2024-02-16T13:48:43;12.70;94.50
45643;DHT22;31358;46.008;11.144;2024-02-16T13:51:09;12.80;94.70
45643;DHT22;31358;46.008;11.144;2024-02-16T13:53:37;12.80;95.10
45643;DHT22;31358;46.008;11.144;2024-02-16T13:56:04;12.80;94.90
45643;DHT22;31358;46.008;11.144;2024-02-16T13:58:31;12.90;94.90
45643;DHT22;31358;46.008;11.144;2024-02-16T14:00:58;12.90;95.50
45643;DHT22;31358;46.008;11.144;2024-02-16T14:03:24;13.10;95.00
45643;DHT22;31358;46.008;11.144;2024-02-16T14:05:50;13.00;94.90
45643;DHT22;31358;46.008;11.144;2024-02-16T14:08:17;13.00;95.00
45643;DHT22;31358;46.008;11.144;2024-02-16T14:10:43;13.00;95.20
45643;DHT22;31358;46.008;11.144;2024-02-16T14:13:09;12.90;95.10
45643;DHT22;31358;46.008;11.144;2024-02-16T14:15:35;12.90;95.00
45643;DHT22;31358;46.008;11.144;2024-02-16T14:18:00;12.90;95.00
45643;DHT22;31358;46.008;11.144;2024-02-16T14:20:26;12.90;95.10
45643;DHT22;31358;46.008;11.144;2024-02-16T14:22:52;12.90;95.20
45643;DHT22;31358;46.008;11.144;2024-02-16T14:25:18;12.90;95.10
45643;DHT22;31358;46.008;11.144;2024-02-16T14:27:44;12.90;95.20
45643;DHT22;31358;46.008;11.144;2024-02-16T14:30:12;12.90;95.30
45643;DHT22;31358;46.008;11.144;2024-02-16T14:32:38;12.90;95.30
45643;DHT22;31358;46.008;11.144;2024-02-16T14:35:04;12.90;95.40
45643;DHT22;31358;46.008;11.144;2024-02-16T14:37:31;13.00;95.70
45643;DHT22;31358;46.008;11.144;2024-02-16T14:39:58;13.00;95.50
45643;DHT22;31358;46.008;11.144;2024-02-16T14:42:26;12.90;95.40
45643;DHT22;31358;46.008;11.144;2024-02-16T14:44:52;13.00;95.50
45643;DHT22;31358;46.008;11.144;2024-02-16T14:47:18;12.90;95.70
45643;DHT22;31358;46.008;11.144;2024-02-16T14:49:43;12.90;95.50
45643;DHT22;31358;46.008;11.144;2024-02-16T14:52:09;12.90;96.00
45643;DHT22;31358;46.008;11.144;2024-02-16T14:54:35;13.00;95.90
45643;DHT22;31358;46.008;11.144;2024-02-16T14:57:01;13.00;95.70
45643;DHT22;31358;46.008;11.144;2024-02-16T14:59:27;12.90;95.60
45643;DHT22;31358;46.008;11.144;2024-02-16T15:01:54;12.90;95.20
45643;DHT22;31358;46.008;11.144;2024-02-16T15:04:21;12.90;95.30
45643;DHT22;31358;46.008;11.144;2024-02-16T15:06:47;12.90;95.10
45643;DHT22;31358;46.008;11.144;2024-02-16T15:09:12;12.90;95.10
45643;DHT22;31358;46.008;11.144;2024-02-16T15:11:38;13.00;95.30
45643;DHT22;31358;46.008;11.144;2024-02-16T15:14:04;12.90;95.50
45643;DHT22;31358;46.008;11.144;2024-02-16T15:16:30;13.00;95.40
45643;DHT22;31358;46.008;11.144;2024-02-16T15:18:56;13.00;95.50
45643;DHT22;31358;46.008;11.144;2024-02-16T15:21:22;12.90;95.30
45643;DHT22;31358;46.008;11.144;2024-02-16T15:23:47;13.00;95.90
45643;DHT22;31358;46.008;11.144;2024-02-16T15:26:13;13.10;95.70